createdAt,value
2019-03-15T00:00:24.002Z,5.53
2019-03-15T00:02:50.502Z,5.49
2019-03-15T00:05:17.968Z,5.49
2019-03-15T00:07:44.137Z,5.55
2019-03-15T00:10:10.605Z,5.60
2019-03-15T00:12:37.884Z,5.65
2019-03-15T00:15:06.875Z,5.63
2019-03-15T00:17:33.120Z,5.63
2019-03-15T00:19:59.354Z,5.72
2019-03-15T00:22:26.774Z,5.74
2019-03-15T00:24:53.001Z,5.81
2019-03-15T00:27:19.124Z,5.74
2019-03-15T00:29:45.309Z,5.75
2019-03-15T00:32:12.955Z,5.76
2019-03-15T00:34:39.068Z,5.70
2019-03-15T00:37:05.181Z,5.61
2019-03-15T00:39:31.293Z,5.72
2019-03-15T00:41:57.607Z,5.69
2019-03-15T00:44:23.738Z,5.66
2019-03-15T00:46:49.860Z,5.57
2019-03-15T00:49:15.985Z,5.74
2019-03-15T00:51:42.090Z,5.70
2019-03-15T00:54:09.303Z,5.71
2019-03-15T00:56:35.491Z,5.63
2019-03-15T00:59:01.847Z,5.61
2019-03-15T01:01:27.979Z,5.67
2019-03-15T01:03:55.410Z,5.75
2019-03-15T01:06:21.631Z,5.82
2019-03-15T01:08:47.912Z,5.91
2019-03-15T01:11:13.995Z,5.79
2019-03-15T01:13:40.086Z,5.89
2019-03-15T01:16:06.431Z,5.82
2019-03-15T01:18:32.516Z,5.82
2019-03-15T01:20:59.742Z,5.81
2019-03-15T01:23:25.847Z,5.81
2019-03-15T01:25:52.065Z,5.88
2019-03-15T01:28:18.282Z,5.78
2019-03-15T01:30:44.389Z,5.81
2019-03-15T01:33:10.525Z,5.76
2019-03-15T01:35:36.653Z,5.76
2019-03-15T01:38:02.982Z,5.76
2019-03-15T01:40:30.077Z,5.70
2019-03-15T01:42:56.396Z,5.69
2019-03-15T01:45:22.510Z,5.75
2019-03-15T01:47:48.697Z,5.80
2019-03-15T01:50:14.982Z,5.77
2019-03-15T01:52:41.242Z,5.74
2019-03-15T01:55:07.424Z,5.58
2019-03-15T01:57:33.744Z,5.65
2019-03-15T01:59:59.971Z,5.65
2019-03-15T02:02:26.087Z,5.70
2019-03-15T02:04:52.294Z,5.75
2019-03-15T02:07:18.517Z,5.73
2019-03-15T02:09:44.736Z,5.71
2019-03-15T02:12:10.810Z,5.70
2019-03-15T02:14:36.930Z,5.66
2019-03-15T02:17:03.119Z,5.63
2019-03-15T02:19:29.235Z,5.67
2019-03-15T02:21:55.385Z,5.69
2019-03-15T02:24:21.477Z,5.68
2019-03-15T02:26:48.464Z,5.74
2019-03-15T02:29:14.744Z,5.66
2019-03-15T02:31:40.843Z,5.65
2019-03-15T02:34:07.033Z,5.69
2019-03-15T02:36:33.138Z,5.74
2019-03-15T02:38:59.235Z,5.76
2019-03-15T02:41:25.464Z,5.84
2019-03-15T02:43:51.635Z,5.92
2019-03-15T02:46:17.871Z,5.78
2019-03-15T02:48:44.054Z,5.78
2019-03-15T02:51:10.276Z,5.81
2019-03-15T02:53:36.517Z,5.82
2019-03-15T02:56:02.865Z,5.81
2019-03-15T02:58:29.069Z,5.83
2019-03-15T03:00:55.202Z,5.81
2019-03-15T03:03:21.545Z,5.85
2019-03-15T03:05:47.723Z,5.90
2019-03-15T03:08:14.390Z,5.90
2019-03-15T03:10:41.083Z,5.84
2019-03-15T03:13:07.207Z,5.89
2019-03-15T03:15:33.427Z,5.85
2019-03-15T03:17:59.556Z,5.85
2019-03-15T03:20:25.619Z,5.83
2019-03-15T03:22:51.847Z,5.82
2019-03-15T03:25:18.019Z,5.77
2019-03-15T03:27:44.252Z,5.73
2019-03-15T03:30:10.554Z,5.80
2019-03-15T03:32:36.847Z,5.80
2019-03-15T03:35:04.776Z,5.84
2019-03-15T03:37:30.893Z,5.86
2019-03-15T03:39:57.001Z,5.81
2019-03-15T03:42:23.248Z,5.81
2019-03-15T03:44:49.654Z,5.75
2019-03-15T03:47:15.822Z,5.72
2019-03-15T03:49:42.008Z,5.77
2019-03-15T03:52:08.176Z,5.78
2019-03-15T03:54:34.479Z,5.68
2019-03-15T03:57:00.759Z,5.80
2019-03-15T03:59:26.971Z,5.93
2019-03-15T04:01:53.430Z,5.88
2019-03-15T04:04:19.614Z,5.85
2019-03-15T04:06:45.870Z,5.90
2019-03-15T04:09:12.177Z,5.86
2019-03-15T04:11:38.298Z,5.86
2019-03-15T04:14:04.664Z,5.95
2019-03-15T04:16:30.788Z,5.89
2019-03-15T04:18:56.932Z,5.89
2019-03-15T04:21:23.138Z,5.82
2019-03-15T04:23:49.287Z,5.81
2019-03-15T04:26:15.519Z,5.85
2019-03-15T04:28:41.728Z,5.77
2019-03-15T04:31:07.848Z,5.73
2019-03-15T04:33:34.048Z,5.74
2019-03-15T04:36:00.289Z,5.74
2019-03-15T04:38:26.501Z,5.68
2019-03-15T04:40:52.789Z,5.65
2019-03-15T04:43:18.998Z,5.77
2019-03-15T04:45:45.259Z,5.76
2019-03-15T04:48:11.496Z,5.80
2019-03-15T04:50:37.681Z,5.75
2019-03-15T04:53:03.804Z,5.68
2019-03-15T04:55:30.241Z,5.72
2019-03-15T04:57:56.344Z,5.75
2019-03-15T05:00:22.599Z,5.78
2019-03-15T05:02:48.725Z,5.74
2019-03-15T05:05:14.867Z,5.76
2019-03-15T05:07:41.066Z,5.87
2019-03-15T05:10:08.093Z,5.79
2019-03-15T05:12:34.386Z,5.85
2019-03-15T05:15:00.767Z,5.82
2019-03-15T05:17:26.990Z,5.85
2019-03-15T05:19:53.206Z,5.86
2019-03-15T05:22:19.362Z,5.87
2019-03-15T05:24:45.512Z,5.80
2019-03-15T05:27:11.836Z,5.86
2019-03-15T05:29:37.998Z,5.85
2019-03-15T05:32:04.329Z,5.90
2019-03-15T05:34:30.510Z,5.89
2019-03-15T05:36:56.768Z,5.93
2019-03-15T05:39:22.940Z,5.94
2019-03-15T05:41:49.047Z,5.97
2019-03-15T05:44:15.123Z,6.00
2019-03-15T05:46:41.443Z,6.04
2019-03-15T05:49:07.770Z,6.03
2019-03-15T05:51:33.926Z,5.99
2019-03-15T05:54:00.107Z,5.97
2019-03-15T05:56:26.328Z,6.02
2019-03-15T05:58:52.443Z,6.04
2019-03-15T06:01:18.675Z,6.04
2019-03-15T06:03:49.011Z,6.01
2019-03-15T06:06:12.899Z,5.98
2019-03-15T06:08:39.143Z,6.00
2019-03-15T06:11:05.452Z,5.99
2019-03-15T06:13:31.564Z,6.02
2019-03-15T06:15:57.706Z,6.05
2019-03-15T06:18:23.816Z,6.04
2019-03-15T06:20:49.968Z,6.04
2019-03-15T06:23:17.063Z,5.97
2019-03-15T06:25:43.232Z,6.07
2019-03-15T06:28:09.455Z,6.00
2019-03-15T06:30:35.546Z,6.03
2019-03-15T06:33:01.770Z,5.98
2019-03-15T06:35:28.049Z,6.00
2019-03-15T06:37:54.266Z,5.96
2019-03-15T06:40:20.469Z,6.01
2019-03-15T06:42:46.728Z,5.92
2019-03-15T06:45:13.495Z,6.00
2019-03-15T06:47:39.847Z,5.95
2019-03-15T06:50:07.032Z,5.98
2019-03-15T06:52:33.285Z,5.99
2019-03-15T06:55:00.723Z,5.98
2019-03-15T06:57:26.949Z,5.96
2019-03-15T06:59:53.088Z,5.98
2019-03-15T07:02:19.662Z,5.98
2019-03-15T07:04:45.914Z,6.06
2019-03-15T07:07:15.103Z,6.10
2019-03-15T07:09:41.271Z,6.14
2019-03-15T07:12:09.978Z,6.19
2019-03-15T07:14:36.292Z,6.22
2019-03-15T07:17:03.703Z,6.27
2019-03-15T07:19:30.646Z,6.28
2019-03-15T07:21:56.938Z,6.30
2019-03-15T07:24:25.641Z,6.29
2019-03-15T07:26:51.939Z,6.35
2019-03-15T07:29:19.081Z,6.35
2019-03-15T07:31:45.398Z,6.40
2019-03-15T07:34:13.923Z,6.42
2019-03-15T07:36:39.490Z,6.43
2019-03-15T07:39:05.929Z,6.46
2019-03-15T07:41:32.169Z,6.42
2019-03-15T07:43:58.334Z,6.48
2019-03-15T07:46:24.518Z,6.47
2019-03-15T07:48:51.834Z,6.43
2019-03-15T07:51:18.004Z,6.38
2019-03-15T07:53:44.252Z,6.31
2019-03-15T07:56:10.460Z,6.30
2019-03-15T07:58:37.710Z,6.26
2019-03-15T08:01:04.057Z,6.28
2019-03-15T08:03:30.268Z,6.23
2019-03-15T08:05:56.393Z,6.22
2019-03-15T08:08:22.668Z,6.17
2019-03-15T08:10:48.867Z,6.20
2019-03-15T08:13:15.061Z,6.23
2019-03-15T08:15:41.519Z,6.23
2019-03-15T08:18:07.597Z,6.23
2019-03-15T08:20:33.832Z,6.18
2019-03-15T08:22:59.916Z,6.18
2019-03-15T08:25:26.140Z,6.14
2019-03-15T08:27:52.241Z,6.14
2019-03-15T08:30:18.493Z,6.15
2019-03-15T08:32:44.790Z,6.17
2019-03-15T08:35:12.388Z,6.13
2019-03-15T08:37:38.697Z,6.14
2019-03-15T08:40:09.408Z,6.15
2019-03-15T08:42:35.734Z,6.12
2019-03-15T08:45:04.636Z,6.19
2019-03-15T08:47:30.884Z,6.19
2019-03-15T08:49:57.008Z,6.22
2019-03-15T08:52:23.110Z,6.20
2019-03-15T08:54:49.449Z,6.19
2019-03-15T08:57:15.524Z,6.20
2019-03-15T08:59:53.910Z,6.23
2019-03-15T09:02:09.842Z,6.25
2019-03-15T09:04:36.080Z,6.23
2019-03-15T09:07:02.377Z,6.26
2019-03-15T09:09:29.628Z,6.23
2019-03-15T09:11:55.815Z,6.22
2019-03-15T09:14:22.163Z,6.22
2019-03-15T09:16:49.273Z,6.22
2019-03-15T09:19:15.492Z,6.25
2019-03-15T09:21:41.596Z,6.28
2019-03-15T09:24:09.673Z,6.29
2019-03-15T09:26:35.798Z,6.30
2019-03-15T09:29:02.241Z,6.40
2019-03-15T09:31:28.556Z,6.43
2019-03-15T09:33:54.792Z,6.37
2019-03-15T09:36:20.917Z,6.32
2019-03-15T09:38:47.126Z,6.33
2019-03-15T09:41:13.303Z,6.33
2019-03-15T09:43:39.452Z,6.33
2019-03-15T09:46:05.703Z,6.37
2019-03-15T09:48:31.899Z,6.37
2019-03-15T09:50:58.028Z,6.35
2019-03-15T09:53:24.128Z,6.37
2019-03-15T09:55:50.436Z,6.38
2019-03-15T09:58:16.690Z,6.37
2019-03-15T10:00:42.805Z,6.44
2019-03-15T10:03:21.459Z,6.47
2019-03-15T10:05:37.185Z,6.47
2019-03-15T10:08:03.393Z,6.50
2019-03-15T10:10:29.566Z,6.52
2019-03-15T10:13:05.910Z,6.52
2019-03-15T10:15:26.461Z,6.54
2019-03-15T10:17:52.144Z,6.60
2019-03-15T10:20:18.443Z,6.64
2019-03-15T10:22:44.727Z,6.67
2019-03-15T10:25:12.256Z,6.75
2019-03-15T10:27:38.617Z,6.78
2019-03-15T10:30:16.250Z,6.83
2019-03-15T10:32:42.490Z,6.94
2019-03-15T10:35:10.794Z,7.10
2019-03-15T10:37:36.909Z,7.24
2019-03-15T10:40:09.554Z,7.34
2019-03-15T10:42:36.877Z,7.44
2019-03-15T10:45:06.695Z,7.46
2019-03-15T10:47:32.811Z,7.48
2019-03-15T10:49:58.946Z,7.53
2019-03-15T10:52:25.119Z,7.60
2019-03-15T10:54:51.231Z,7.71
2019-03-15T10:57:17.372Z,7.78
2019-03-15T10:59:43.605Z,7.80
2019-03-15T11:02:10.344Z,7.85
2019-03-15T11:04:36.458Z,7.90
2019-03-15T11:07:02.800Z,7.96
2019-03-15T11:09:29.244Z,8.08
2019-03-15T11:11:55.428Z,8.16
2019-03-15T11:14:21.568Z,8.27
2019-03-15T11:16:47.780Z,8.38
2019-03-15T11:19:15.615Z,8.44
2019-03-15T11:21:42.175Z,8.49
2019-03-15T11:24:08.388Z,8.62
2019-03-15T11:26:34.582Z,8.72
2019-03-15T11:29:00.939Z,8.78
2019-03-15T11:31:27.237Z,8.82
2019-03-15T11:33:53.562Z,8.86
2019-03-15T11:36:19.646Z,8.91
2019-03-15T11:38:45.862Z,9.05
2019-03-15T11:41:12.284Z,9.09
2019-03-15T11:43:38.428Z,9.09
2019-03-15T11:46:04.774Z,9.15
2019-03-15T11:48:31.123Z,9.27
2019-03-15T11:50:57.461Z,9.42
2019-03-15T11:53:23.650Z,9.67
2019-03-15T11:55:49.937Z,9.70
2019-03-15T11:58:16.029Z,9.84
2019-03-15T12:00:42.206Z,9.90
2019-03-15T12:03:08.330Z,9.96
2019-03-15T12:05:34.673Z,9.96
2019-03-15T12:08:00.899Z,10.06
2019-03-15T12:10:27.190Z,10.19
2019-03-15T12:12:53.339Z,10.35
2019-03-15T12:15:19.645Z,10.45
2019-03-15T12:17:45.881Z,10.68
2019-03-15T12:20:12.764Z,10.90
2019-03-15T12:22:39.234Z,10.87
2019-03-15T12:25:07.409Z,10.93
2019-03-15T12:27:33.623Z,11.07
2019-03-15T12:29:59.844Z,11.15
2019-03-15T12:32:26.073Z,11.24
2019-03-15T12:34:52.224Z,11.23
2019-03-15T12:37:18.381Z,11.22
2019-03-15T12:39:44.531Z,11.21
2019-03-15T12:42:10.850Z,11.17
2019-03-15T12:44:39.191Z,11.19
2019-03-15T12:47:06.319Z,11.18
2019-03-15T12:49:32.925Z,11.21
2019-03-15T12:51:59.065Z,11.17
2019-03-15T12:54:25.259Z,11.21
2019-03-15T12:56:54.049Z,11.21
2019-03-15T12:59:19.560Z,11.13
2019-03-15T13:01:45.737Z,11.09
2019-03-15T13:04:12.285Z,11.02
2019-03-15T13:06:39.509Z,10.99
2019-03-15T13:09:05.732Z,10.97
2019-03-15T13:11:32.046Z,11.07
2019-03-15T13:13:58.303Z,11.13
2019-03-15T13:16:24.571Z,11.26
2019-03-15T13:18:50.891Z,11.36
2019-03-15T13:21:17.030Z,11.43
2019-03-15T13:23:43.298Z,11.49
2019-03-15T13:26:09.444Z,11.50
2019-03-15T13:28:35.707Z,11.47
2019-03-15T13:31:01.902Z,11.43
2019-03-15T13:33:28.180Z,11.38
2019-03-15T13:35:54.424Z,11.34
2019-03-15T13:38:20.659Z,11.28
2019-03-15T13:40:46.878Z,11.25
2019-03-15T13:43:16.024Z,11.23
2019-03-15T13:45:44.778Z,11.11
2019-03-15T13:48:11.083Z,10.98
2019-03-15T13:50:37.327Z,10.89
2019-03-15T13:53:03.441Z,10.88
2019-03-15T13:55:29.532Z,10.86
2019-03-15T13:57:55.909Z,10.88
2019-03-15T14:00:22.190Z,10.87
2019-03-15T14:02:48.482Z,10.88
2019-03-15T14:05:14.717Z,11.03
2019-03-15T14:07:40.814Z,11.08
2019-03-15T14:10:11.887Z,11.14
2019-03-15T14:12:38.118Z,11.19
2019-03-15T14:15:07.906Z,11.21
2019-03-15T14:17:34.093Z,11.25
2019-03-15T14:20:00.411Z,11.32
2019-03-15T14:22:27.658Z,11.33
2019-03-15T14:24:53.787Z,11.36
2019-03-15T14:27:27.606Z,11.39
2019-03-15T14:29:48.310Z,11.40
2019-03-15T14:32:14.799Z,11.47
2019-03-15T14:34:41.007Z,11.46
2019-03-15T14:37:10.193Z,11.37
2019-03-15T14:39:35.743Z,11.30
2019-03-15T14:42:02.047Z,11.35
2019-03-15T14:44:28.229Z,11.34
2019-03-15T14:46:54.359Z,11.40
2019-03-15T14:49:20.559Z,11.34
2019-03-15T14:51:47.009Z,11.19
2019-03-15T14:54:13.249Z,10.30
2019-03-15T14:56:39.420Z,9.52
2019-03-15T14:59:05.664Z,9.10
2019-03-15T15:01:31.998Z,8.83
2019-03-15T15:03:58.259Z,8.75
2019-03-15T15:06:24.578Z,8.63
2019-03-15T15:08:50.912Z,8.69
2019-03-15T15:11:17.047Z,8.76
2019-03-15T15:13:43.287Z,8.77
2019-03-15T15:16:09.548Z,8.72
2019-03-15T15:18:35.664Z,8.76
2019-03-15T15:21:01.903Z,8.79
2019-03-15T15:23:28.247Z,8.74
2019-03-15T15:25:54.495Z,8.74
2019-03-15T15:28:20.620Z,8.74
2019-03-15T15:30:46.975Z,8.66
2019-03-15T15:33:13.257Z,8.63
2019-03-15T15:35:41.619Z,8.70
2019-03-15T15:38:07.728Z,8.74
2019-03-15T15:40:33.975Z,8.77
2019-03-15T15:43:00.426Z,8.62
2019-03-15T15:45:29.718Z,8.69
2019-03-15T15:47:57.500Z,8.71
2019-03-15T15:50:23.762Z,8.69
2019-03-15T15:52:49.970Z,8.71
2019-03-15T15:55:19.503Z,8.75
2019-03-15T15:57:47.645Z,8.73
2019-03-15T16:00:17.532Z,8.71
2019-03-15T16:02:43.927Z,8.75
2019-03-15T16:05:10.478Z,8.72
2019-03-15T16:07:36.790Z,8.71
2019-03-15T16:10:06.157Z,8.75
2019-03-15T16:12:32.300Z,8.81
2019-03-15T16:14:58.627Z,8.78
2019-03-15T16:17:24.777Z,8.81
2019-03-15T16:19:51.103Z,8.75
2019-03-15T16:22:17.310Z,8.82
2019-03-15T16:24:43.501Z,8.79
2019-03-15T16:27:09.643Z,8.85
2019-03-15T16:29:35.977Z,8.86
2019-03-15T16:32:02.406Z,8.82
2019-03-15T16:34:28.726Z,8.82
2019-03-15T16:36:54.953Z,8.85
2019-03-15T16:39:21.233Z,8.90
2019-03-15T16:41:47.345Z,8.89
2019-03-15T16:44:13.738Z,8.83
2019-03-15T16:46:39.962Z,8.83
2019-03-15T16:49:06.077Z,8.85
2019-03-15T16:51:32.247Z,8.85
2019-03-15T16:53:58.499Z,8.90
2019-03-15T16:56:24.920Z,8.94
2019-03-15T16:58:51.145Z,8.87
2019-03-15T17:01:17.716Z,8.83
2019-03-15T17:03:43.956Z,8.85
2019-03-15T17:06:10.310Z,8.85
2019-03-15T17:08:36.762Z,8.87
2019-03-15T17:11:03.488Z,8.90
2019-03-15T17:13:29.669Z,8.96
2019-03-15T17:15:56.096Z,8.95
2019-03-15T17:18:22.388Z,9.03
2019-03-15T17:20:49.739Z,9.03
2019-03-15T17:23:15.935Z,9.02
2019-03-15T17:25:42.207Z,9.09
2019-03-15T17:28:08.446Z,9.04
2019-03-15T17:30:36.392Z,9.02
2019-03-15T17:33:05.966Z,9.00
2019-03-15T17:35:30.797Z,9.11
2019-03-15T17:37:57.097Z,9.11
2019-03-15T17:40:23.413Z,9.06
2019-03-15T17:42:49.740Z,9.05
2019-03-15T17:45:16.062Z,9.08
2019-03-15T17:47:42.405Z,9.10
2019-03-15T17:50:15.346Z,9.07
2019-03-15T17:52:41.690Z,9.11
2019-03-15T17:55:08.150Z,9.07
2019-03-15T17:57:34.500Z,8.98
2019-03-15T18:00:33.091Z,9.02
2019-03-15T18:02:59.423Z,8.96
2019-03-15T18:05:25.853Z,8.92
2019-03-15T18:07:52.299Z,8.81
2019-03-15T18:10:21.755Z,8.81
2019-03-15T18:12:48.013Z,8.87
2019-03-15T18:15:14.320Z,8.80
2019-03-15T18:17:40.698Z,8.81
2019-03-15T18:20:07.815Z,8.73
2019-03-15T18:22:34.256Z,8.62
2019-03-15T18:25:00.625Z,8.59
2019-03-15T18:27:27.069Z,8.56
2019-03-15T18:29:53.570Z,8.52
2019-03-15T18:32:20.418Z,8.45
2019-03-15T18:34:47.189Z,8.46
2019-03-15T18:37:13.841Z,8.44
2019-03-15T18:39:40.176Z,8.45
2019-03-15T18:42:06.509Z,8.38
2019-03-15T18:44:32.975Z,8.42
2019-03-15T18:46:59.194Z,8.37
2019-03-15T18:49:26.631Z,8.19
2019-03-15T18:51:52.856Z,8.16
2019-03-15T18:54:19.287Z,8.12
2019-03-15T18:56:45.517Z,8.12
2019-03-15T18:59:11.885Z,8.19
2019-03-15T19:01:38.291Z,8.16
2019-03-15T19:04:04.676Z,8.05
2019-03-15T19:06:30.923Z,7.93
2019-03-15T19:08:57.271Z,7.88
2019-03-15T19:11:23.612Z,7.80
2019-03-15T19:13:49.955Z,7.73
2019-03-15T19:16:20.255Z,7.83
2019-03-15T19:18:44.365Z,7.81
2019-03-15T19:21:10.659Z,7.79
2019-03-15T19:23:37.286Z,7.71
2019-03-15T19:26:03.689Z,7.70
2019-03-15T19:28:30.012Z,7.74
2019-03-15T19:30:56.394Z,7.75
2019-03-15T19:33:22.751Z,7.71
2019-03-15T19:35:49.154Z,7.66
2019-03-15T19:38:15.375Z,7.69
2019-03-15T19:40:41.627Z,7.72
2019-03-15T19:43:08.090Z,7.60
2019-03-15T19:45:34.424Z,7.70
2019-03-15T19:48:00.609Z,7.57
2019-03-15T19:50:27.054Z,7.54
2019-03-15T19:52:53.417Z,7.66
2019-03-15T19:55:19.820Z,7.62
2019-03-15T19:57:46.311Z,7.56
2019-03-15T20:00:19.464Z,7.54
2019-03-15T20:02:45.977Z,7.47
2019-03-15T20:05:12.691Z,7.44
2019-03-15T20:07:39.101Z,7.43
2019-03-15T20:10:16.115Z,7.45
2019-03-15T20:12:40.845Z,7.46
2019-03-15T20:15:09.595Z,7.44
2019-03-15T20:17:36.083Z,7.40
2019-03-15T20:20:04.965Z,7.45
2019-03-15T20:22:31.630Z,7.59
2019-03-15T20:24:58.961Z,7.54
2019-03-15T20:27:25.641Z,7.44
2019-03-15T20:29:52.015Z,7.48
2019-03-15T20:32:18.369Z,7.43
2019-03-15T20:34:44.843Z,7.50
2019-03-15T20:37:11.190Z,7.51
2019-03-15T20:39:37.678Z,7.39
2019-03-15T20:42:04.761Z,7.32
2019-03-15T20:44:31.050Z,7.32
2019-03-15T20:46:57.191Z,7.38
2019-03-15T20:49:23.423Z,7.35
2019-03-15T20:51:49.791Z,7.23
2019-03-15T20:54:16.290Z,7.28
2019-03-15T20:56:42.653Z,7.32
2019-03-15T20:59:08.940Z,7.27
2019-03-15T21:01:35.274Z,7.34
2019-03-15T21:04:02.906Z,7.27
2019-03-15T21:06:29.423Z,7.27
2019-03-15T21:08:58.301Z,7.29
2019-03-15T21:11:24.858Z,7.36
2019-03-15T21:13:51.089Z,7.31
2019-03-15T21:16:18.309Z,7.14
2019-03-15T21:18:44.983Z,7.14
2019-03-15T21:21:11.499Z,7.10
2019-03-15T21:23:37.608Z,7.27
2019-03-15T21:26:03.967Z,7.24
2019-03-15T21:28:30.409Z,7.17
2019-03-15T21:30:56.851Z,7.03
2019-03-15T21:33:23.469Z,7.00
2019-03-15T21:35:49.745Z,7.13
2019-03-15T21:38:15.975Z,7.19
2019-03-15T21:40:42.176Z,7.03
2019-03-15T21:43:08.708Z,7.06
2019-03-15T21:45:35.123Z,7.07
2019-03-15T21:48:01.546Z,7.07
2019-03-15T21:50:27.796Z,6.99
2019-03-15T21:52:54.223Z,7.07
2019-03-15T21:55:20.789Z,7.10
2019-03-15T21:57:46.994Z,7.12
2019-03-15T22:00:14.427Z,7.12
2019-03-15T22:02:41.792Z,7.03
2019-03-15T22:05:08.242Z,6.96
2019-03-15T22:07:34.640Z,6.97
2019-03-15T22:10:00.965Z,7.05
2019-03-15T22:12:28.456Z,7.08
2019-03-15T22:14:54.722Z,6.98
2019-03-15T22:17:21.199Z,6.97
2019-03-15T22:19:47.610Z,7.06
2019-03-15T22:22:13.938Z,6.96
2019-03-15T22:24:40.317Z,6.93
2019-03-15T22:27:06.905Z,6.91
2019-03-15T22:29:33.217Z,6.90
2019-03-15T22:31:59.645Z,6.90
2019-03-15T22:34:26.012Z,6.84
2019-03-15T22:36:52.407Z,6.87
2019-03-15T22:39:18.847Z,6.87
2019-03-15T22:41:45.218Z,6.80
2019-03-15T22:44:11.563Z,6.76
2019-03-15T22:46:37.890Z,6.88
2019-03-15T22:49:04.356Z,6.82
2019-03-15T22:51:30.794Z,6.78
2019-03-15T22:53:57.198Z,6.67
2019-03-15T22:56:23.381Z,6.65
2019-03-15T22:58:49.544Z,6.57
2019-03-15T23:01:29.310Z,6.60
2019-03-15T23:03:44.014Z,6.56
2019-03-15T23:06:10.482Z,6.48
2019-03-15T23:08:36.591Z,6.49
2019-03-15T23:11:03.054Z,6.40
2019-03-15T23:13:29.527Z,6.33
2019-03-15T23:15:55.713Z,6.37
2019-03-15T23:18:21.965Z,6.31
2019-03-15T23:20:48.240Z,6.30
2019-03-15T23:23:23.684Z,6.22
2019-03-15T23:25:43.248Z,6.38
2019-03-15T23:28:09.996Z,6.39
2019-03-15T23:30:36.456Z,6.35
2019-03-15T23:33:02.794Z,6.44
2019-03-15T23:35:29.130Z,6.48
2019-03-15T23:37:55.375Z,6.52
2019-03-15T23:40:21.496Z,6.51
2019-03-15T23:42:47.790Z,6.41
2019-03-15T23:45:14.127Z,6.43
2019-03-15T23:47:40.389Z,6.47
2019-03-15T23:50:13.572Z,6.49
2019-03-15T23:52:39.770Z,6.46
2019-03-15T23:55:06.186Z,6.54
2019-03-15T23:57:32.279Z,6.58
2019-03-15T23:59:58.409Z,6.57
